Time;durP1;ratioP1;P1;durP2;ratioP2;P2;SDS_P1;SDS_P2;PMS_P1;PMS_P2;Temp;Humidity;BMP_temperature;BMP_pressure;BME280_temperature;BME280_humidity;BME280_pressure;Samples;Min_cycle;Max_cycle;Signal;HPM_P1;HPM_P2
2024/03/27 00:00:11;;;;;;;;;2.00;2.00;;;;;12.28;100.00;98149.66;2105958;27;46215;-63
2024/03/27 00:01:11;;;;;;;;;1.00;1.00;;;;;12.29;100.00;98151.34;2098741;28;45808;-63
2024/03/27 00:02:13;;;;;;;;;2.00;2.00;;;;;12.26;100.00;98148.91;2100743;28;46513;-63
2024/03/27 00:03:13;;;;;;;;;2.00;2.00;;;;;12.25;100.00;98152.53;2103334;27;46380;-61
2024/03/27 00:04:13;;;;;;;;;3.33;2.00;;;;;12.22;100.00;98142.97;2099086;28;46224;-63
2024/03/27 00:05:14;;;;;;;;;3.00;3.00;;;;;12.18;100.00;98140.63;2098690;28;46317;-63
2024/03/27 00:06:14;;;;;;;;;3.00;2.00;;;;;12.18;100.00;98141.47;2104737;28;46372;-63
2024/03/27 00:07:15;;;;;;;;;1.00;1.00;;;;;12.18;100.00;98130.81;2103376;27;46426;-63
2024/03/27 00:08:15;;;;;;;;;2.00;2.00;;;;;12.19;100.00;98121.88;2103271;28;46502;-61
2024/03/27 00:09:16;;;;;;;;;2.33;2.33;;;;;11.90;100.00;98131.88;2102661;28;46367;-64
2024/03/27 00:10:16;;;;;;;;;2.00;2.00;;;;;11.86;100.00;98127.75;2104654;28;46964;-63
2024/03/27 00:11:16;;;;;;;;;2.00;2.00;;;;;12.14;100.00;98118.72;2102537;27;45936;-63
2024/03/27 00:12:17;;;;;;;;;3.00;2.00;;;;;12.15;100.00;98120.41;2100876;27;46451;-63
2024/03/27 00:13:17;;;;;;;;;3.67;3.67;;;;;12.18;100.00;98120.19;2100957;27;46117;-64
2024/03/27 00:14:18;;;;;;;;;2.00;2.00;;;;;12.20;100.00;98120.97;2104599;27;45317;-64
2024/03/27 00:15:19;;;;;;;;;3.25;2.50;;;;;12.15;100.00;98116.91;2099588;28;45545;-63
2024/03/27 00:16:20;;;;;;;;;2.00;2.00;;;;;12.16;100.00;98111.47;2105392;27;46228;-63
2024/03/27 00:17:20;;;;;;;;;3.00;2.00;;;;;12.15;100.00;98104.47;2099026;27;46754;-63
2024/03/27 00:18:21;;;;;;;;;1.67;1.67;;;;;12.20;100.00;98110.31;2104429;28;46535;-63
2024/03/27 00:19:21;;;;;;;;;4.00;4.00;;;;;12.13;100.00;98113.50;2104041;27;46813;-63
2024/03/27 00:20:22;;;;;;;;;2.67;2.67;;;;;12.21;100.00;98121.81;2111380;27;47102;-64
2024/03/27 00:21:22;;;;;;;;;2.00;2.00;;;;;12.26;100.00;98117.00;2103610;27;46264;-63
2024/03/27 00:22:22;;;;;;;;;2.00;2.00;;;;;12.26;100.00;98117.88;2101169;28;46243;-63
2024/03/27 00:23:23;;;;;;;;;2.67;2.67;;;;;12.28;100.00;98115.09;2104591;27;45862;-63
2024/03/27 00:24:23;;;;;;;;;3.00;3.00;;;;;12.30;100.00;98113.16;2102803;27;46312;-63
2024/03/27 00:25:24;;;;;;;;;3.00;3.00;;;;;12.29;100.00;98100.84;2104784;28;46319;-64
2024/03/27 00:26:25;;;;;;;;;2.75;2.75;;;;;12.30;100.00;98100.72;2104639;28;47208;-64
2024/03/27 00:27:25;;;;;;;;;2.33;2.33;;;;;12.31;100.00;98096.25;2088684;28;46403;-64
2024/03/27 00:28:26;;;;;;;;;3.00;3.00;;;;;12.25;100.00;98091.38;2088229;28;46423;-63
2024/03/27 00:29:26;;;;;;;;;2.50;2.50;;;;;12.20;100.00;98083.75;2105028;28;45433;-63
2024/03/27 00:30:26;;;;;;;;;3.00;3.00;;;;;12.22;100.00;98089.78;2105167;28;45717;-64
2024/03/27 00:31:28;;;;;;;;;2.67;2.67;;;;;12.27;100.00;98090.31;2097313;27;46515;-64
2024/03/27 00:32:28;;;;;;;;;2.00;2.00;;;;;12.16;100.00;98092.88;2103191;28;46305;-63
2024/03/27 00:33:29;;;;;;;;;3.00;3.00;;;;;12.16;100.00;98097.34;2102186;28;46997;-63
2024/03/27 00:34:29;;;;;;;;;3.00;3.00;;;;;12.12;100.00;98102.03;2099756;28;46597;-64
2024/03/27 00:35:29;;;;;;;;;3.33;3.00;;;;;12.13;100.00;98105.53;2100078;28;47089;-63
2024/03/27 00:36:30;;;;;;;;;3.67;3.67;;;;;12.13;100.00;98102.88;2099659;28;46644;-63
2024/03/27 00:37:30;;;;;;;;;3.00;3.00;;;;;12.30;100.00;98115.84;2107511;27;46070;-64
2024/03/27 00:38:31;;;;;;;;;3.00;3.00;;;;;12.30;100.00;98111.34;2099794;27;46405;-64
2024/03/27 00:39:32;;;;;;;;;2.50;2.50;;;;;12.33;100.00;98116.50;2104339;27;46363;-63
2024/03/27 00:40:32;;;;;;;;;3.33;3.33;;;;;12.39;100.00;98109.88;2104817;27;45631;-64
2024/03/27 00:41:33;;;;;;;;;3.00;3.00;;;;;12.41;100.00;98113.28;2099860;28;46624;-65
2024/03/27 00:42:33;;;;;;;;;1.67;1.33;;;;;12.40;100.00;98108.91;2100084;28;46060;-64
2024/03/27 00:43:35;;;;;;;;;3.33;3.33;;;;;12.42;100.00;98108.81;2099861;27;46216;-63
2024/03/27 00:44:35;;;;;;;;;3.00;3.00;;;;;12.42;100.00;98112.31;2102485;28;46529;-63
2024/03/27 00:45:35;;;;;;;;;3.00;3.00;;;;;12.43;100.00;98108.69;2104564;27;46217;-65
2024/03/27 00:46:35;;;;;;;;;2.67;2.67;;;;;12.44;100.00;98112.19;2102212;27;46148;-63
2024/03/27 00:47:36;;;;;;;;;3.33;3.00;;;;;12.43;100.00;98102.53;2100030;28;46643;-64
2024/03/27 00:48:37;;;;;;;;;3.00;3.00;;;;;12.39;100.00;98104.56;2103059;28;47020;-63
2024/03/27 00:49:37;;;;;;;;;2.00;2.00;;;;;12.34;100.00;98101.38;2106358;27;46679;-63
2024/03/27 00:50:37;;;;;;;;;4.00;3.67;;;;;12.35;100.00;98105.75;2104425;28;46848;-64
2024/03/27 00:51:38;;;;;;;;;5.00;5.00;;;;;12.29;100.00;98108.81;2106831;27;46268;-63
2024/03/27 00:52:38;;;;;;;;;3.00;3.00;;;;;12.32;100.00;98109.47;2104896;28;46263;-63
2024/03/27 00:53:38;;;;;;;;;3.67;3.67;;;;;12.31;100.00;98105.09;2105971;28;46628;-63
2024/03/27 00:54:39;;;;;;;;;4.00;4.00;;;;;12.30;100.00;98111.34;2102500;27;46450;-63
2024/03/27 00:55:40;;;;;;;;;4.00;4.00;;;;;12.31;100.00;98104.22;2106518;27;47037;-63
2024/03/27 00:56:40;;;;;;;;;4.67;4.00;;;;;12.41;100.00;98113.28;2095379;28;46795;-63
2024/03/27 00:57:42;;;;;;;;;3.00;3.00;;;;;12.50;100.00;98109.13;2097676;28;46748;-63
2024/03/27 00:58:42;;;;;;;;;5.00;4.50;;;;;12.26;100.00;98103.72;2107017;27;46380;-63
2024/03/27 00:59:43;;;;;;;;;3.33;3.33;;;;;12.44;100.00;98110.38;2107060;28;46335;-62
2024/03/27 01:00:43;;;;;;;;;3.67;3.67;;;;;12.47;100.00;98102.22;2107430;28;46639;-63
2024/03/27 01:01:44;;;;;;;;;5.00;5.00;;;;;12.46;100.00;98108.50;2107622;27;46767;-63
2024/03/27 01:02:45;;;;;;;;;4.00;4.00;;;;;12.51;100.00;98116.13;2107516;28;46322;-64
2024/03/27 01:03:45;;;;;;;;;6.50;5.25;;;;;12.54;100.00;98105.28;2104655;27;46733;-63
2024/03/27 01:04:49;;;;;;;;;6.00;6.00;;;;;12.55;100.00;98105.16;2106501;28;46459;-63
2024/03/27 01:05:49;;;;;;;;;4.50;4.50;;;;;12.57;100.00;98116.53;2107063;28;46949;-64
2024/03/27 01:06:50;;;;;;;;;5.00;5.00;;;;;12.37;100.00;98111.78;2107036;28;46820;-64
2024/03/27 01:07:50;;;;;;;;;5.00;4.67;;;;;12.56;100.00;98112.19;2106444;28;45960;-63
2024/03/27 01:08:50;;;;;;;;;4.00;4.00;;;;;12.60;100.00;98110.16;2105478;27;45666;-64
2024/03/27 01:09:51;;;;;;;;;6.00;6.00;;;;;12.46;100.00;98103.19;2107236;27;46654;-64
2024/03/27 01:10:51;;;;;;;;;4.67;4.67;;;;;12.58;100.00;98104.13;2105754;28;46261;-64
2024/03/27 01:11:52;;;;;;;;;5.00;5.00;;;;;12.38;100.00;98111.69;2107132;27;46768;-64
2024/03/27 01:12:52;;;;;;;;;6.33;3.33;;;;;12.48;100.00;98103.06;2107202;27;46665;-64
2024/03/27 01:13:52;;;;;;;;;4.00;4.00;;;;;12.24;100.00;98116.28;2107630;28;46454;-64
2024/03/27 01:14:53;;;;;;;;;7.00;7.00;;;;;12.21;100.00;98108.53;2106835;28;45085;-65
2024/03/27 01:15:53;;;;;;;;;5.00;5.00;;;;;12.17;100.00;98109.66;2103251;28;45462;-63
2024/03/27 01:16:54;;;;;;;;;8.33;6.67;;;;;12.20;100.00;98113.00;2106243;27;46340;-64
2024/03/27 01:17:54;;;;;;;;;5.00;5.00;;;;;12.35;100.00;98121.69;2107298;28;46160;-64
2024/03/27 01:18:54;;;;;;;;;5.00;5.00;;;;;12.32;100.00;98113.91;2102102;28;46294;-64
2024/03/27 01:19:55;;;;;;;;;5.33;5.33;;;;;12.37;100.00;98114.47;2102436;27;46352;-64
2024/03/27 01:20:55;;;;;;;;;6.00;6.00;;;;;12.37;100.00;98111.78;2107518;27;46319;-64
2024/03/27 01:21:55;;;;;;;;;4.67;4.67;;;;;12.30;100.00;98111.34;2105466;28;45363;-64
2024/03/27 01:22:56;;;;;;;;;5.67;5.67;;;;;12.33;100.00;98112.97;2106935;28;46012;-64
2024/03/27 01:23:57;;;;;;;;;4.25;4.00;;;;;12.22;100.00;98110.22;2105666;28;47377;-63
2024/03/27 01:24:57;;;;;;;;;6.00;5.00;;;;;12.19;100.00;98107.75;2107053;27;46809;-64
2024/03/27 01:26:02;;;;;;;;;5.00;5.00;;;;;12.18;100.00;98106.91;2106407;27;46526;-64
2024/03/27 01:27:03;;;;;;;;;5.00;5.00;;;;;12.17;100.00;98114.97;2103781;27;45336;-64
2024/03/27 01:28:04;;;;;;;;;7.67;6.33;;;;;12.17;100.00;98122.97;2107130;28;45921;-64
2024/03/27 01:29:04;;;;;;;;;4.00;4.00;;;;;12.13;100.00;98126.81;2107281;27;46434;-64
2024/03/27 01:30:09;;;;;;;;;5.33;5.00;;;;;12.08;100.00;98132.44;2105926;27;46593;-65
2024/03/27 01:31:09;;;;;;;;;7.00;5.50;;;;;11.91;100.00;98135.38;2105980;28;47038;-64
2024/03/27 01:32:10;;;;;;;;;5.67;5.67;;;;;12.00;100.00;98137.44;2106536;28;46752;-64
2024/03/27 01:33:10;;;;;;;;;0.67;0.67;;;;;11.96;100.00;98141.25;2103575;27;46673;-64
2024/03/27 01:34:10;;;;;;;;;7.00;5.33;;;;;11.94;100.00;98130.75;2104343;28;46712;-64
2024/03/27 01:35:11;;;;;;;;;7.00;7.00;;;;;11.93;100.00;98129.00;2102293;27;45608;-64
2024/03/27 01:36:11;;;;;;;;;6.33;5.33;;;;;11.92;100.00;98134.44;2104534;28;46396;-64
2024/03/27 01:37:11;;;;;;;;;9.00;6.00;;;;;11.92;100.00;98126.47;2101930;27;46515;-64
2024/03/27 01:38:11;;;;;;;;;6.00;5.00;;;;;11.89;100.00;98132.84;2105691;28;47020;-64
2024/03/27 01:39:12;;;;;;;;;6.00;6.00;;;;;11.88;100.00;98125.81;2106129;28;46513;-64
2024/03/27 01:40:12;;;;;;;;;4.33;4.33;;;;;11.89;100.00;98130.19;2106713;28;46331;-64
2024/03/27 01:41:12;;;;;;;;;5.33;5.33;;;;;11.96;100.00;98126.16;2106829;27;46201;-64
2024/03/27 01:42:13;;;;;;;;;4.00;4.00;;;;;12.01;100.00;98124.03;2100993;28;46190;-64
2024/03/27 01:43:13;;;;;;;;;8.00;5.33;;;;;12.01;100.00;98113.41;2106101;28;45471;-63
2024/03/27 01:44:19;;;;;;;;;8.00;6.00;;;;;12.01;100.00;98118.72;2106016;28;45442;-64
2024/03/27 01:45:19;;;;;;;;;6.50;6.25;;;;;12.02;100.00;98120.41;2104642;28;46333;-65
2024/03/27 01:46:20;;;;;;;;;4.67;4.67;;;;;12.03;100.00;98130.09;2099459;27;46288;-63
2024/03/27 01:47:21;;;;;;;;;6.75;5.50;;;;;12.03;100.00;98130.09;2103342;28;46601;-64
2024/03/27 01:48:21;;;;;;;;;6.33;6.33;;;;;12.05;100.00;98130.81;2100809;28;46289;-64
2024/03/27 01:49:22;;;;;;;;;8.00;6.00;;;;;12.07;100.00;98128.94;2099462;28;46627;-64
2024/03/27 01:50:28;;;;;;;;;6.00;6.00;;;;;12.11;100.00;98134.03;2111712;27;45777;-63
2024/03/27 01:51:29;;;;;;;;;7.25;6.25;;;;;12.12;100.00;98133.06;2107573;27;46941;-64
2024/03/27 01:52:30;;;;;;;;;4.33;4.33;;;;;12.11;100.00;98126.06;2106179;27;46233;-64
2024/03/27 01:53:31;;;;;;;;;5.00;5.00;;;;;12.10;100.00;98127.88;2102740;28;46980;-64
2024/03/27 01:54:32;;;;;;;;;7.67;6.67;;;;;12.11;100.00;98124.25;2105003;28;45598;-64
2024/03/27 01:55:32;;;;;;;;;8.75;6.25;;;;;12.11;100.00;98132.22;2080706;28;44948;-64
2024/03/27 01:56:33;;;;;;;;;7.33;6.00;;;;;12.03;100.00;98124.78;2085507;28;46561;-64
2024/03/27 01:57:36;;;;;;;;;5.50;5.50;;;;;11.99;100.00;98130.41;2102939;28;45327;-64
2024/03/27 01:58:37;;;;;;;;;6.00;5.25;;;;;11.96;100.00;98131.47;2104123;27;46477;-64
2024/03/27 01:59:37;;;;;;;;;6.00;6.00;;;;;11.95;100.00;98131.59;2104559;28;46411;-64
2024/03/27 02:00:38;;;;;;;;;7.00;7.00;;;;;12.18;100.00;98122.00;2107095;27;46667;-64
2024/03/27 02:01:39;;;;;;;;;9.67;8.00;;;;;11.98;100.00;98124.25;2101487;28;46473;-62
2024/03/27 02:02:40;;;;;;;;;6.00;6.00;;;;;11.94;100.00;98117.44;2099735;28;46423;-64
2024/03/27 02:03:40;;;;;;;;;6.50;6.50;;;;;11.97;100.00;98111.06;2103359;27;46330;-63
2024/03/27 02:04:41;;;;;;;;;6.67;6.67;;;;;12.01;100.00;98117.88;2105580;27;46233;-63
2024/03/27 02:05:42;;;;;;;;;6.33;6.33;;;;;11.94;100.00;98116.56;2105304;27;46602;-64
2024/03/27 02:06:43;;;;;;;;;6.67;6.67;;;;;11.97;100.00;98106.59;2104659;28;46329;-64
2024/03/27 02:07:44;;;;;;;;;7.00;7.00;;;;;11.94;100.00;98108.59;2105134;27;46604;-64
2024/03/27 02:08:44;;;;;;;;;8.50;7.00;;;;;11.98;100.00;98104.78;2105558;27;46803;-63
2024/03/27 02:09:45;;;;;;;;;7.67;7.00;;;;;12.05;100.00;98101.59;2105548;28;45808;-65
2024/03/27 02:10:45;;;;;;;;;8.67;8.00;;;;;12.07;100.00;98089.06;2098021;28;46457;-64
2024/03/27 02:11:46;;;;;;;;;6.67;5.00;;;;;12.08;100.00;98103.19;2104168;28;46289;-64
2024/03/27 02:12:46;;;;;;;;;6.00;6.00;;;;;12.13;100.00;98090.44;2102121;27;46256;-63
2024/03/27 02:13:47;;;;;;;;;9.00;7.00;;;;;12.12;100.00;98090.53;2105514;27;46543;-63
2024/03/27 02:14:47;;;;;;;;;7.00;6.00;;;;;12.13;100.00;98090.44;2105678;27;46626;-64
2024/03/27 02:15:58;;;;;;;;;5.67;5.33;;;;;12.14;100.00;98085.97;2105457;28;46571;-63
2024/03/27 02:16:59;;;;;;;;;9.00;9.00;;;;;12.12;100.00;98078.09;2102547;27;46692;-64
2024/03/27 02:17:59;;;;;;;;;6.00;6.00;;;;;12.13;100.00;98086.94;2102875;28;45624;-63
2024/03/27 02:18:59;;;;;;;;;7.00;7.00;;;;;12.13;100.00;98078.94;2105181;28;46839;-63
2024/03/27 02:20:00;;;;;;;;;7.67;7.00;;;;;12.22;100.00;98073.00;2105604;27;46376;-64
2024/03/27 02:21:01;;;;;;;;;8.67;7.33;;;;;12.16;100.00;98092.00;2101302;27;46633;-63
2024/03/27 02:22:02;;;;;;;;;7.25;6.00;;;;;12.17;100.00;98085.75;2103254;28;46350;-63
2024/03/27 02:23:10;;;;;;;;;6.50;5.00;;;;;12.30;100.00;98086.56;2105496;27;46541;-62
2024/03/27 02:24:19;;;;;;;;;7.25;7.25;;;;;12.35;100.00;98080.00;2102955;27;45887;-63
2024/03/27 02:25:33;;;;;;;;;8.00;8.00;;;;;12.32;100.00;98076.69;2105192;27;46180;-63
2024/03/27 02:26:37;;;;;;;;;7.50;6.25;;;;;12.26;100.00;98069.16;2101693;28;46912;-64
2024/03/27 02:27:38;;;;;;;;;8.50;7.00;;;;;12.34;100.00;98058.84;2104812;27;46164;-64
2024/03/27 02:28:38;;;;;;;;;7.75;7.75;;;;;12.38;100.00;98060.31;2103267;27;46917;-63
2024/03/27 02:29:39;;;;;;;;;8.00;8.00;;;;;12.39;100.00;98059.34;2104386;28;46290;-62
2024/03/27 02:30:46;;;;;;;;;7.00;7.00;;;;;12.38;100.00;98069.13;2102359;28;47081;-64
2024/03/27 02:31:46;;;;;;;;;6.75;6.75;;;;;12.38;100.00;98065.63;2105529;27;46998;-62
2024/03/27 02:32:47;;;;;;;;;9.00;7.33;;;;;12.33;100.00;98062.44;2099555;28;46431;-63
2024/03/27 02:33:47;;;;;;;;;9.33;8.00;;;;;12.08;100.00;98055.34;2100813;28;46193;-63
2024/03/27 02:34:47;;;;;;;;;9.00;8.00;;;;;12.23;100.00;98051.63;2105523;27;46883;-63
2024/03/27 02:35:48;;;;;;;;;5.67;5.67;;;;;12.01;100.00;98049.59;2099504;27;46228;-63
2024/03/27 02:36:48;;;;;;;;;8.00;8.00;;;;;12.00;100.00;98053.22;2100574;28;45245;-63
2024/03/27 02:37:48;;;;;;;;;8.00;8.00;;;;;11.97;100.00;98049.94;2105092;27;46295;-63
2024/03/27 02:38:48;;;;;;;;;6.67;6.67;;;;;12.04;100.00;98052.03;2104984;28;46304;-62
2024/03/27 02:39:49;;;;;;;;;10.00;8.67;;;;;12.05;100.00;98056.41;2103495;27;46134;-62
2024/03/27 02:40:49;;;;;;;;;8.00;8.00;;;;;12.07;100.00;98062.47;2104442;28;46093;-62
2024/03/27 02:41:49;;;;;;;;;7.00;7.00;;;;;12.06;100.00;98055.44;2101250;28;46118;-62
2024/03/27 02:42:50;;;;;;;;;7.33;6.00;;;;;12.07;100.00;98053.66;2104234;28;46913;-63
2024/03/27 02:43:51;;;;;;;;;7.00;7.00;;;;;12.07;100.00;98054.50;2102693;28;46737;-62
2024/03/27 02:44:51;;;;;;;;;7.00;7.00;;;;;12.07;100.00;98062.47;2101707;28;46257;-62
2024/03/27 02:45:51;;;;;;;;;8.00;7.33;;;;;12.04;100.00;98061.81;2105489;28;46855;-63
2024/03/27 02:46:52;;;;;;;;;7.67;7.67;;;;;12.02;100.00;98069.06;2104960;28;46434;-63
2024/03/27 02:47:52;;;;;;;;;9.33;8.33;;;;;12.01;100.00;98070.88;2105370;28;46234;-64
2024/03/27 02:48:52;;;;;;;;;7.67;6.67;;;;;12.00;100.00;98074.47;2105072;27;46379;-62
2024/03/27 02:49:53;;;;;;;;;6.50;6.50;;;;;12.00;100.00;98069.16;2105091;27;47109;-63
2024/03/27 02:50:53;;;;;;;;;7.00;7.00;;;;;11.98;100.00;98060.47;2105169;28;46756;-63
2024/03/27 02:51:54;;;;;;;;;10.00;7.75;;;;;11.99;100.00;98063.97;2105242;28;46440;-63
2024/03/27 02:52:54;;;;;;;;;7.67;7.00;;;;;12.01;100.00;98070.03;2103810;27;46698;-62
2024/03/27 02:53:54;;;;;;;;;6.00;6.00;;;;;12.01;100.00;98062.03;2105167;27;46659;-64
2024/03/27 02:54:55;;;;;;;;;8.67;8.00;;;;;12.01;100.00;98064.69;2104971;28;46668;-64
2024/03/27 02:55:55;;;;;;;;;5.50;5.50;;;;;12.01;100.00;98070.88;2103164;28;46208;-64
2024/03/27 02:56:56;;;;;;;;;6.50;6.50;;;;;12.01;100.00;98073.53;2101668;27;46370;-65
2024/03/27 02:57:56;;;;;;;;;6.00;6.00;;;;;12.02;100.00;98074.38;2100936;27;46385;-62
2024/03/27 02:58:57;;;;;;;;;7.00;7.00;;;;;12.03;100.00;98078.72;2105206;27;46147;-63
2024/03/27 02:59:57;;;;;;;;;7.00;7.00;;;;;12.02;100.00;98071.72;2100478;27;46614;-63
2024/03/27 03:00:57;;;;;;;;;8.75;7.25;;;;;12.00;100.00;98070.97;2100183;28;46673;-65
2024/03/27 03:01:58;;;;;;;;;8.00;7.67;;;;;12.01;100.00;98070.03;2104951;28;46344;-63
2024/03/27 03:02:58;;;;;;;;;7.50;6.00;;;;;12.02;100.00;98074.38;2103576;27;46583;-63
2024/03/27 03:03:58;;;;;;;;;7.75;6.75;;;;;12.04;100.00;98067.13;2101472;27;46033;-63
2024/03/27 03:04:59;;;;;;;;;9.00;9.00;;;;;12.06;100.00;98071.38;2105310;28;46272;-63
2024/03/27 03:05:59;;;;;;;;;8.33;8.33;;;;;12.05;100.00;98069.69;2092797;28;46260;-63
2024/03/27 03:06:59;;;;;;;;;7.75;7.75;;;;;12.05;100.00;98072.34;2096479;28;45169;-63
2024/03/27 03:08:00;;;;;;;;;8.33;7.67;;;;;12.02;100.00;98077.03;2104704;28;46854;-65
2024/03/27 03:09:00;;;;;;;;;6.00;6.00;;;;;12.01;100.00;98078.00;2101060;27;46247;-63
2024/03/27 03:10:01;;;;;;;;;7.00;7.00;;;;;12.00;100.00;98077.16;2103991;28;45511;-64
2024/03/27 03:11:01;;;;;;;;;10.00;8.33;;;;;11.97;100.00;98058.75;2102453;28;46308;-64
2024/03/27 03:12:02;;;;;;;;;6.67;6.00;;;;;11.97;100.00;98065.88;2099806;28;46152;-63
2024/03/27 03:13:02;;;;;;;;;8.50;6.50;;;;;11.98;100.00;98064.94;2102910;28;45938;-64
2024/03/27 03:14:03;;;;;;;;;5.33;5.33;;;;;12.00;100.00;98063.84;2104828;28;46570;-64
2024/03/27 03:15:04;;;;;;;;;7.00;7.00;;;;;12.01;100.00;98062.88;2101777;27;46206;-64
2024/03/27 03:16:04;;;;;;;;;6.50;6.50;;;;;12.00;100.00;98058.53;2102613;28;46310;-64
2024/03/27 03:17:05;;;;;;;;;7.00;7.00;;;;;11.98;100.00;98052.47;2099542;27;46224;-63
2024/03/27 03:18:05;;;;;;;;;6.33;6.33;;;;;11.97;100.00;98058.75;2104487;28;46181;-64
2024/03/27 03:19:05;;;;;;;;;7.25;6.00;;;;;11.96;100.00;98058.88;2105048;27;46246;-64
2024/03/27 03:20:07;;;;;;;;;6.33;6.33;;;;;11.95;100.00;98051.84;2101641;27;46577;-64
2024/03/27 03:21:07;;;;;;;;;7.60;6.00;;;;;11.94;100.00;98043.03;2112092;27;46412;-64
2024/03/27 03:22:10;;;;;;;;;6.25;5.50;;;;;11.93;100.00;98041.31;2111909;27;45412;-63
2024/03/27 03:23:11;;;;;;;;;6.00;6.00;;;;;11.95;100.00;98041.22;2102022;27;46594;-63
2024/03/27 03:24:11;;;;;;;;;7.50;7.50;;;;;11.96;100.00;98038.47;2100885;28;46500;-62
2024/03/27 03:25:11;;;;;;;;;7.00;7.00;;;;;11.97;100.00;98048.13;2102942;27;46623;-63
2024/03/27 03:26:12;;;;;;;;;6.67;6.67;;;;;11.97;100.00;98040.16;2104886;27;46309;-63
2024/03/27 03:27:12;;;;;;;;;6.00;5.00;;;;;11.97;100.00;98040.16;2102048;27;46610;-64
2024/03/27 03:28:12;;;;;;;;;6.00;6.00;;;;;11.97;100.00;98036.66;2096534;28;46690;-62
2024/03/27 03:29:13;;;;;;;;;7.33;7.33;;;;;11.98;100.00;98041.00;2102840;28;46657;-63
2024/03/27 03:30:13;;;;;;;;;6.00;6.00;;;;;12.02;100.00;98035.34;2094241;28;46793;-63
2024/03/27 03:31:17;;;;;;;;;5.67;5.67;;;;;12.00;100.00;98039.09;2090155;28;46567;-65
2024/03/27 03:32:17;;;;;;;;;5.25;5.25;;;;;12.02;100.00;98038.00;2099613;28;46830;-63
2024/03/27 03:33:17;;;;;;;;;5.67;5.67;;;;;12.15;100.00;98034.50;2099206;27;46508;-63
2024/03/27 03:34:18;;;;;;;;;5.00;5.00;;;;;12.05;100.00;98029.81;2102829;28;46691;-62
2024/03/27 03:35:18;;;;;;;;;5.67;5.67;;;;;12.05;100.00;98028.97;2102775;28;45575;-63
2024/03/27 03:36:19;;;;;;;;;7.00;6.50;;;;;12.03;100.00;98029.06;2103482;27;46769;-62
2024/03/27 03:37:19;;;;;;;;;6.00;5.00;;;;;12.05;100.00;98029.81;2101119;28;47188;-63
2024/03/27 03:38:20;;;;;;;;;5.67;5.33;;;;;12.03;100.00;98023.75;2104256;28;46435;-63
2024/03/27 03:39:21;;;;;;;;;7.00;6.00;;;;;12.06;100.00;98020.03;2102283;27;46999;-63
2024/03/27 03:40:21;;;;;;;;;6.00;6.00;;;;;12.06;100.00;98014.72;2098043;27;46287;-63
2024/03/27 03:41:22;;;;;;;;;5.00;5.00;;;;;12.07;100.00;98019.09;2098555;28;46381;-62
2024/03/27 03:42:22;;;;;;;;;5.00;5.00;;;;;12.06;100.00;98017.38;2099804;28;46251;-63
2024/03/27 03:43:22;;;;;;;;;7.00;5.67;;;;;12.05;100.00;98018.34;2103036;27;46493;-63
2024/03/27 03:44:23;;;;;;;;;6.67;5.33;;;;;12.06;100.00;98018.22;2098099;28;46562;-63
2024/03/27 03:45:23;;;;;;;;;5.33;5.33;;;;;12.05;100.00;98018.34;2086723;28;46285;-63
2024/03/27 03:46:23;;;;;;;;;6.00;6.00;;;;;12.07;100.00;98019.09;2087279;28;46295;-63
2024/03/27 03:47:24;;;;;;;;;5.00;5.00;;;;;12.05;100.00;98011.22;2104769;28;46370;-63
2024/03/27 03:48:24;;;;;;;;;5.00;5.00;;;;;12.04;100.00;98012.16;2102374;28;46866;-63
2024/03/27 03:49:24;;;;;;;;;6.00;6.00;;;;;12.04;100.00;98004.19;2099634;28;45663;-63
2024/03/27 03:50:25;;;;;;;;;6.33;6.33;;;;;12.01;100.00;98009.72;2103304;28;46677;-64
2024/03/27 03:51:25;;;;;;;;;7.67;5.33;;;;;12.03;100.00;98009.63;2101157;28;45660;-62
2024/03/27 03:52:25;;;;;;;;;6.33;6.33;;;;;12.03;100.00;98004.31;2104887;27;46322;-64
2024/03/27 03:53:26;;;;;;;;;8.00;6.33;;;;;12.06;100.00;98004.94;2100267;27;48010;-63
2024/03/27 03:54:26;;;;;;;;;4.00;4.00;;;;;12.03;100.00;98007.81;2098769;28;47011;-63
2024/03/27 03:55:26;;;;;;;;;6.00;4.33;;;;;12.06;100.00;98006.75;2104740;28;46137;-63
2024/03/27 03:56:28;;;;;;;;;5.00;5.00;;;;;12.06;100.00;97998.75;2105084;27;46385;-63
2024/03/27 03:57:28;;;;;;;;;6.75;6.00;;;;;12.07;100.00;98003.16;2103541;28;46863;-63
2024/03/27 03:58:29;;;;;;;;;7.00;6.00;;;;;12.06;100.00;97985.47;2104350;28;46830;-63
2024/03/27 03:59:29;;;;;;;;;4.00;4.00;;;;;12.06;100.00;97990.78;2104385;27;46385;-64
2024/03/27 04:00:30;;;;;;;;;6.00;5.00;;;;;12.05;100.00;97992.59;2104637;28;46266;-63
2024/03/27 04:01:30;;;;;;;;;5.33;5.00;;;;;12.08;100.00;97988.91;2105182;27;46979;-62
2024/03/27 04:02:30;;;;;;;;;5.67;4.00;;;;;12.07;100.00;97988.06;2102073;27;46851;-63
2024/03/27 04:03:31;;;;;;;;;5.33;5.00;;;;;12.08;100.00;97991.56;2104865;27;46570;-63
2024/03/27 04:04:31;;;;;;;;;6.00;5.33;;;;;12.08;100.00;97983.59;2103088;28;46780;-63
2024/03/27 04:05:31;;;;;;;;;5.00;5.00;;;;;12.10;100.00;97992.28;2103726;28;46291;-64
2024/03/27 04:06:31;;;;;;;;;5.00;5.00;;;;;12.08;100.00;98004.84;2103654;27;45555;-64
2024/03/27 04:07:32;;;;;;;;;5.33;5.00;;;;;12.08;100.00;97994.22;2103644;27;46355;-63
2024/03/27 04:08:32;;;;;;;;;5.67;5.00;;;;;12.10;100.00;98005.59;2099385;27;46637;-64
2024/03/27 04:09:32;;;;;;;;;7.00;7.00;;;;;12.11;100.00;97998.47;2103054;28;46467;-63
2024/03/27 04:10:43;;;;;;;;;5.67;4.33;;;;;12.13;100.00;98018.66;2099827;28;46811;-63
2024/03/27 04:11:44;;;;;;;;;5.00;5.00;;;;;12.13;100.00;98010.69;2103475;27;46362;-62
2024/03/27 04:12:45;;;;;;;;;6.50;5.75;;;;;12.12;100.00;98013.44;2100390;27;46585;-63
2024/03/27 04:13:45;;;;;;;;;5.00;5.00;;;;;12.10;100.00;98015.38;2102831;28;46354;-64
2024/03/27 04:14:45;;;;;;;;;4.67;4.67;;;;;12.08;100.00;98019.00;2100254;27;46830;-64
2024/03/27 04:15:46;;;;;;;;;5.00;5.00;;;;;12.08;100.00;98015.47;2103284;27;46360;-64
2024/03/27 04:16:46;;;;;;;;;4.75;4.75;;;;;12.08;100.00;98020.78;2097468;28;46901;-64
2024/03/27 04:17:47;;;;;;;;;4.33;4.33;;;;;12.08;100.00;98019.00;2104300;28;46656;-63
2024/03/27 04:18:47;;;;;;;;;6.00;6.00;;;;;12.07;100.00;98022.59;2103696;28;46468;-62
2024/03/27 04:19:48;;;;;;;;;5.00;5.00;;;;;12.07;100.00;98024.41;2097382;27;46646;-63
2024/03/27 04:20:49;;;;;;;;;4.25;4.25;;;;;12.05;100.00;98028.97;2096867;27;46547;-63
2024/03/27 04:21:49;;;;;;;;;4.00;4.00;;;;;12.02;100.00;98015.91;2099305;28;45395;-64
2024/03/27 04:22:49;;;;;;;;;5.33;5.33;;;;;12.03;100.00;98022.91;2098884;28;47260;-64
2024/03/27 04:23:50;;;;;;;;;6.00;4.33;;;;;12.01;100.00;98019.50;2101558;27;46330;-64
2024/03/27 04:24:50;;;;;;;;;7.00;6.00;;;;;12.21;100.00;98015.47;2101558;28;46351;-61
2024/03/27 04:25:51;;;;;;;;;5.67;4.67;;;;;12.26;100.00;98024.78;2096169;27;46344;-64
2024/03/27 04:26:51;;;;;;;;;5.00;5.00;;;;;12.27;100.00;98017.66;2100746;27;46663;-65
2024/03/27 04:27:52;;;;;;;;;4.67;4.33;;;;;12.28;100.00;98014.03;2100610;27;45575;-63
2024/03/27 04:28:52;;;;;;;;;6.33;5.00;;;;;12.27;100.00;98015.00;2103436;28;47293;-64
2024/03/27 04:29:54;;;;;;;;;5.67;5.67;;;;;12.28;100.00;98014.03;2100857;28;46866;-65
2024/03/27 04:30:54;;;;;;;;;6.00;4.75;;;;;12.28;100.00;98016.72;2102445;27;46378;-64
2024/03/27 04:31:55;;;;;;;;;6.33;6.33;;;;;12.29;100.00;98010.44;2097698;27;46479;-63
2024/03/27 04:32:55;;;;;;;;;5.00;5.00;;;;;12.28;100.00;98001.59;2093557;28;45813;-65
2024/03/27 04:33:56;;;;;;;;;5.33;5.00;;;;;12.27;100.00;98002.56;2086838;28;46450;-64
2024/03/27 04:34:56;;;;;;;;;5.00;5.00;;;;;12.20;100.00;98003.13;2069890;28;46709;-64
2024/03/27 04:35:56;;;;;;;;;5.00;5.00;;;;;12.30;100.00;98005.00;2079761;28;46330;-64
2024/03/27 04:36:57;;;;;;;;;6.67;6.67;;;;;12.32;100.00;98008.41;2100000;28;46454;-65
2024/03/27 04:37:57;;;;;;;;;5.33;5.33;;;;;12.33;100.00;98011.94;2102622;28;46558;-64
2024/03/27 04:38:58;;;;;;;;;6.00;4.00;;;;;12.33;100.00;98009.25;2100184;28;46447;-64
2024/03/27 04:39:59;;;;;;;;;4.00;4.00;;;;;12.32;100.00;98007.53;2099652;27;46541;-64
2024/03/27 04:41:01;;;;;;;;;5.00;5.00;;;;;12.31;100.00;98009.34;2100731;28;46328;-66
2024/03/27 04:42:03;;;;;;;;;4.00;4.00;;;;;12.30;100.00;97998.81;2104095;28;46971;-65